Time;durP1;ratioP1;P1;durP2;ratioP2;P2;SDS_P1;SDS_P2;PMS_P1;PMS_P2;Temp;Humidity;BMP_temperature;BMP_pressure;BME280_temperature;BME280_humidity;BME280_pressure;Samples;Min_cycle;Max_cycle;Signal;HPM_P1;HPM_P2
2022/03/04 00:00:38;;;;;;;;;;;;;;;21.35;28.52;95558.22;10448179;28;1996;-47
2022/03/04 00:05:39;;;;;;;;;;;;;;;21.40;28.35;95562.66;10458036;28;1885;-45
2022/03/04 00:10:39;;;;;;;;;;;;;;;21.43;28.35;95568.13;10423970;28;1964;-48
2022/03/04 00:15:40;;;;;;;;;;;;;;;21.42;28.25;95566.59;10423069;28;1968;-49
2022/03/04 00:20:40;;;;;;;;;;;;;;;21.42;28.20;95573.69;10443841;28;1985;-48
2022/03/04 00:25:41;;;;;;;;;;;;;;;21.46;28.06;95566.78;10440445;28;1974;-47
2022/03/04 00:30:41;;;;;;;;;;;;;;;21.48;28.05;95575.19;10441012;28;1814;-45
2022/03/04 00:35:41;;;;;;;;;;;;;;;21.45;28.37;95576.53;10442323;28;1972;-50
2022/03/04 00:40:42;;;;;;;;;;;;;;;21.48;28.26;95580.47;10425757;28;1887;-48
2022/03/04 00:45:42;;;;;;;;;;;;;;;21.48;28.56;95583.13;10444296;28;1819;-49
2022/03/04 00:50:42;;;;;;;;;;;;;;;21.52;28.13;95573.56;10440144;28;2027;-47
2022/03/04 00:55:43;;;;;;;;;;;;;;;21.55;28.43;95576.44;10422897;28;1901;-47
2022/03/04 01:00:43;;;;;;;;;;;;;;;21.57;28.12;95578.78;10424476;28;1902;-46
2022/03/04 01:05:44;;;;;;;;;;;;;;;21.56;28.15;95574.56;10422178;28;1907;-48
2022/03/04 01:10:44;;;;;;;;;;;;;;;21.55;28.11;95568.53;10417181;28;1848;-47
2022/03/04 01:15:44;;;;;;;;;;;;;;;21.55;28.40;95563.25;10423992;28;1968;-49
2022/03/04 01:20:45;;;;;;;;;;;;;;;21.59;28.01;95566.09;10421833;28;2048;-47
2022/03/04 01:25:46;;;;;;;;;;;;;;;21.59;28.14;95556.34;10420840;28;2025;-48
2022/03/04 01:30:47;;;;;;;;;;;;;;;21.58;28.14;95557.41;10416414;28;2029;-44
2022/03/04 01:35:47;;;;;;;;;;;;;;;21.58;28.23;95557.41;10425957;28;2101;-42
2022/03/04 01:40:48;;;;;;;;;;;;;;;21.59;28.24;95555.56;10431516;28;2093;-41
2022/03/04 01:45:48;;;;;;;;;;;;;;;21.60;28.08;95549.19;10428444;28;1857;-47
2022/03/04 01:50:49;;;;;;;;;;;;;;;21.62;28.14;95544.41;10442842;28;1862;-48
2022/03/04 01:55:49;;;;;;;;;;;;;;;21.60;28.04;95541.28;10430930;28;1999;-47
2022/03/04 02:00:50;;;;;;;;;;;;;;;21.63;27.88;95543.38;10429011;28;2014;-48
2022/03/04 02:05:50;;;;;;;;;;;;;;;21.66;27.88;95540.94;10444651;28;1971;-50
2022/03/04 02:10:51;;;;;;;;;;;;;;;21.66;27.73;95537.50;10466694;22;3654;-54
2022/03/04 02:15:55;;;;;;;;;;;;;;;21.64;27.72;95534.38;10489898;28;1920;-55
2022/03/04 02:21:01;;;;;;;;;;;;;;;21.69;27.63;95539.59;10487982;28;2111;-57
2022/03/04 02:26:04;;;;;;;;;;;;;;;21.67;27.77;95534.59;10472245;28;1918;-55
2022/03/04 02:31:05;;;;;;;;;;;;;;;21.68;27.65;95533.53;10479091;28;1859;-54
2022/03/04 02:36:10;;;;;;;;;;;;;;;21.69;27.70;95524.56;10465713;28;1906;-57
2022/03/04 02:41:10;;;;;;;;;;;;;;;21.66;27.69;95519.84;10490608;28;1754;-56
2022/03/04 02:46:11;;;;;;;;;;;;;;;21.66;27.62;95513.75;10489752;28;1846;-57
2022/03/04 02:51:11;;;;;;;;;;;;;;;21.66;27.63;95511.13;10473558;28;1894;-56
2022/03/04 02:56:12;;;;;;;;;;;;;;;21.68;27.37;95503.72;10487234;28;1898;-56
2022/03/04 03:01:12;;;;;;;;;;;;;;;21.66;27.31;95514.56;10472419;28;1851;-56
2022/03/04 03:06:13;;;;;;;;;;;;;;;21.71;27.43;95508.44;10470124;28;2053;-57
2022/03/04 03:11:13;;;;;;;;;;;;;;;21.70;27.56;95507.63;10488966;28;2250;-57
2022/03/04 03:16:14;;;;;;;;;;;;;;;21.71;27.55;95517.13;10470717;28;1972;-57
2022/03/04 03:21:14;;;;;;;;;;;;;;;21.73;27.28;95515.00;10483918;28;1798;-56
2022/03/04 03:26:14;;;;;;;;;;;;;;;21.73;27.38;95520.28;10482111;28;1796;-56
2022/03/04 03:31:15;;;;;;;;;;;;;;;21.76;27.37;95518.91;10460546;28;1699;-58
2022/03/04 03:36:16;;;;;;;;;;;;;;;21.73;27.42;95535.31;10478416;28;1909;-54
2022/03/04 03:41:16;;;;;;;;;;;;;;;21.74;27.18;95532.38;10483912;28;1785;-57
2022/03/04 03:46:16;;;;;;;;;;;;;;;21.75;27.35;95518.13;10474384;28;1868;-58
2022/03/04 03:51:17;;;;;;;;;;;;;;;21.75;27.45;95530.53;10472382;28;1856;-57
2022/03/04 03:56:18;;;;;;;;;;;;;;;21.74;27.48;95527.09;10478546;28;1898;-58
2022/03/04 04:01:18;;;;;;;;;;;;;;;21.71;27.49;95537.44;10464323;28;1750;-58
2022/03/04 04:06:19;;;;;;;;;;;;;;;21.74;27.27;95537.66;10467210;28;2158;-57
2022/03/04 04:11:19;;;;;;;;;;;;;;;21.75;27.20;95541.88;10461716;28;1770;-58
2022/03/04 04:16:21;;;;;;;;;;;;;;;21.75;27.21;95541.09;10487097;28;1883;-58
2022/03/04 04:21:21;;;;;;;;;;;;;;;21.75;26.98;95549.00;10483698;28;1780;-58
2022/03/04 04:26:22;;;;;;;;;;;;;;;21.74;27.00;95556.13;10472425;28;1833;-58
2022/03/04 04:31:22;;;;;;;;;;;;;;;21.74;27.00;95558.00;10476033;28;1788;-57
2022/03/04 04:36:23;;;;;;;;;;;;;;;21.75;27.01;95562.19;10479377;28;2004;-61
2022/03/04 04:41:23;;;;;;;;;;;;;;;21.76;27.01;95561.13;10479121;28;1798;-56
2022/03/04 04:46:23;;;;;;;;;;;;;;;21.77;27.04;95562.69;10484694;28;1896;-57
2022/03/04 04:51:24;;;;;;;;;;;;;;;21.73;26.93;95574.88;10474172;28;1921;-57
2022/03/04 04:56:24;;;;;;;;;;;;;;;21.74;26.85;95574.59;10489627;28;1941;-58
2022/03/04 05:01:24;;;;;;;;;;;;;;;21.77;26.94;95567.97;10462248;28;1542;-58
2022/03/04 05:06:25;;;;;;;;;;;;;;;21.76;26.84;95582.25;10456785;28;1859;-59
2022/03/04 05:11:25;;;;;;;;;;;;;;;21.76;26.72;95576.97;10473071;28;1808;-56
2022/03/04 05:16:25;;;;;;;;;;;;;;;21.79;26.77;95576.38;10461829;28;1902;-58
2022/03/04 05:21:26;;;;;;;;;;;;;;;21.76;26.85;95583.00;10481601;28;1848;-57
2022/03/04 05:26:27;;;;;;;;;;;;;;;21.77;26.65;95583.78;10461185;28;1912;-58
2022/03/04 05:31:27;;;;;;;;;;;;;;;21.75;26.15;95581.44;10475006;28;1762;-58
2022/03/04 05:36:28;;;;;;;;;;;;;;;21.78;26.63;95594.06;10451140;28;1972;-56
2022/03/04 05:41:29;;;;;;;;;;;;;;;21.77;26.59;95594.34;10457865;28;1836;-57
2022/03/04 05:46:30;;;;;;;;;;;;;;;21.76;26.45;95605.97;10477994;28;1812;-57
2022/03/04 05:51:31;;;;;;;;;;;;;;;21.76;26.47;95617.31;10471986;28;1895;-57
2022/03/04 05:56:31;;;;;;;;;;;;;;;21.77;26.22;95621.53;10471586;28;1906;-56
2022/03/04 06:01:31;;;;;;;;;;;;;;;21.79;26.49;95621.22;10487026;28;2054;-57
2022/03/04 06:06:32;;;;;;;;;;;;;;;21.77;26.21;95629.44;10470203;28;1832;-55
2022/03/04 06:11:32;;;;;;;;;;;;;;;21.78;26.28;95632.88;10484092;28;1979;-57
2022/03/04 06:16:33;;;;;;;;;;;;;;;21.78;26.30;95643.44;10488281;28;1901;-56
2022/03/04 06:21:34;;;;;;;;;;;;;;;21.76;26.02;95642.94;10460553;28;1941;-58
2022/03/04 06:26:35;;;;;;;;;;;;;;;21.77;26.00;95649.75;10478752;28;1919;-58
2022/03/04 06:31:35;;;;;;;;;;;;;;;21.79;26.22;95658.97;10473323;28;1878;-58
2022/03/04 06:36:37;;;;;;;;;;;;;;;21.78;26.31;95656.63;10483493;28;1961;-56
2022/03/04 06:41:38;;;;;;;;;;;;;;;21.79;24.67;95660.81;10456726;28;1880;-57
2022/03/04 06:46:38;;;;;;;;;;;;;;;21.53;24.14;95668.25;10464178;28;1830;-57
2022/03/04 06:51:38;;;;;;;;;;;;;;;21.45;23.58;95673.34;10460429;28;1834;-55
2022/03/04 06:56:39;;;;;;;;;;;;;;;21.41;23.77;95681.03;10465626;28;1961;-53
2022/03/04 07:01:39;;;;;;;;;;;;;;;21.41;24.63;95678.38;10464696;28;1815;-52
2022/03/04 07:06:39;;;;;;;;;;;;;;;21.58;25.16;95691.91;10462907;28;2356;-53
2022/03/04 07:11:40;;;;;;;;;;;;;;;21.45;24.09;95689.19;10465353;28;1830;-55
2022/03/04 07:16:40;;;;;;;;;;;;;;;21.42;24.51;95692.38;10483343;28;1987;-55
2022/03/04 07:21:40;;;;;;;;;;;;;;;21.41;23.86;95696.84;10482129;28;2193;-53
2022/03/04 07:26:41;;;;;;;;;;;;;;;21.39;23.88;95693.69;10474460;28;1989;-55
2022/03/04 07:31:41;;;;;;;;;;;;;;;21.44;24.33;95706.84;10477380;28;1898;-56
2022/03/04 07:36:41;;;;;;;;;;;;;;;21.40;24.13;95703.19;10495083;28;2053;-52
2022/03/04 07:41:42;;;;;;;;;;;;;;;21.38;24.05;95713.25;10486832;28;1795;-57
2022/03/04 07:46:42;;;;;;;;;;;;;;;21.35;23.79;95710.38;10484081;28;1828;-53
2022/03/04 07:51:43;;;;;;;;;;;;;;;21.34;23.89;95721.97;10489067;28;1994;-56
2022/03/04 07:56:44;;;;;;;;;;;;;;;21.34;23.77;95722.78;10482530;28;1976;-56
2022/03/04 08:01:45;;;;;;;;;;;;;;;21.33;23.47;95725.69;10481870;28;1829;-54
2022/03/04 08:06:46;;;;;;;;;;;;;;;21.33;23.74;95733.59;10469037;28;2020;-56
2022/03/04 08:11:49;;;;;;;;;;;;;;;21.34;23.74;95732.53;10464292;28;1986;-54
2022/03/04 08:16:50;;;;;;;;;;;;;;;21.35;23.68;95729.59;10472973;28;1957;-56
2022/03/04 08:21:51;;;;;;;;;;;;;;;21.36;23.98;95743.59;10478485;28;1906;-56
2022/03/04 08:26:51;;;;;;;;;;;;;;;21.35;23.45;95744.66;10467317;28;1847;-57
2022/03/04 08:31:52;;;;;;;;;;;;;;;21.37;24.14;95750.44;10481051;28;1811;-54
2022/03/04 08:36:53;;;;;;;;;;;;;;;21.41;23.51;95746.94;10471693;28;2032;-54
2022/03/04 08:41:53;;;;;;;;;;;;;;;21.46;24.53;95749.56;10476032;28;1890;-55
2022/03/04 08:46:53;;;;;;;;;;;;;;;21.38;23.63;95744.09;10484311;28;2037;-54
2022/03/04 08:51:54;;;;;;;;;;;;;;;21.39;23.48;95750.94;10459382;28;1969;-54
2022/03/04 08:56:54;;;;;;;;;;;;;;;21.38;23.80;95757.28;10470572;28;2052;-55
2022/03/04 09:01:55;;;;;;;;;;;;;;;21.40;24.01;95757.78;10488874;28;2019;-55
2022/03/04 09:06:55;;;;;;;;;;;;;;;21.43;23.92;95750.09;10472163;28;1908;-54
2022/03/04 09:11:56;;;;;;;;;;;;;;;21.41;23.63;95754.09;10458117;28;1848;-56
2022/03/04 09:16:56;;;;;;;;;;;;;;;21.41;24.10;95748.81;10460336;28;2162;-56
2022/03/04 09:21:57;;;;;;;;;;;;;;;21.42;24.10;95750.38;10478685;28;2283;-54
2022/03/04 09:26:57;;;;;;;;;;;;;;;21.45;23.71;95739.28;10473606;28;1856;-56
2022/03/04 09:31:58;;;;;;;;;;;;;;;21.46;23.73;95741.63;10480114;28;1753;-54
2022/03/04 09:36:58;;;;;;;;;;;;;;;21.45;23.62;95742.69;10457845;28;2216;-56
2022/03/04 09:41:58;;;;;;;;;;;;;;;21.44;23.93;95732.41;10464125;28;1815;-57
2022/03/04 09:46:59;;;;;;;;;;;;;;;21.49;23.76;95745.56;10469136;28;1961;-55
2022/03/04 09:51:59;;;;;;;;;;;;;;;21.46;23.92;95741.63;10471107;28;1896;-57
2022/03/04 09:57:00;;;;;;;;;;;;;;;21.51;24.41;95738.97;10467859;28;1964;-55
2022/03/04 10:02:01;;;;;;;;;;;;;;;21.53;24.12;95730.75;10490495;28;1683;-54
2022/03/04 10:07:15;;;;;;;;;;;;;;;21.53;24.56;95730.75;10484570;28;1838;-57
2022/03/04 10:12:20;;;;;;;;;;;;;;;21.54;24.06;95733.13;10465995;28;1853;-53
2022/03/04 10:17:20;;;;;;;;;;;;;;;21.57;24.28;95719.38;10487833;28;1980;-57
2022/03/04 10:22:21;;;;;;;;;;;;;;;21.57;24.14;95721.22;10480152;28;2347;-57
2022/03/04 10:27:22;;;;;;;;;;;;;;;21.60;24.28;95715.38;10481348;28;1797;-56
2022/03/04 10:32:24;;;;;;;;;;;;;;;21.63;24.58;95712.97;10482228;28;1896;-55
2022/03/04 10:38:04;;;;;;;;;;;;;;;21.68;24.67;95717.38;10463671;28;1975;-54
2022/03/04 10:43:05;;;;;;;;;;;;;;;21.69;25.01;95708.41;10461234;23;2121;-76
2022/03/04 10:48:11;;;;;;;;;;;;;;;21.72;24.64;95710.50;10459144;28;1835;-73
2022/03/04 10:53:12;;;;;;;;;;;;;;;21.74;24.97;95713.66;10478022;28;1995;-73
2022/03/04 10:58:33;;;;;;;;;;;;;;;21.82;24.88;95702.50;10471547;28;1973;-75
2022/03/04 11:03:34;;;;;;;;;;;;;;;21.76;24.84;95711.53;10468328;28;1822;-74
2022/03/04 11:08:38;;;;;;;;;;;;;;;21.74;25.23;95708.38;10465353;28;1870;-75
2022/03/04 11:13:39;;;;;;;;;;;;;;;21.74;25.23;95705.75;10453844;28;1846;-75
2022/03/04 11:18:40;;;;;;;;;;;;;;;21.74;25.38;95692.56;10431416;28;1963;-74
2022/03/04 11:23:41;;;;;;;;;;;;;;;21.71;25.49;95703.66;10468616;28;1914;-72
2022/03/04 11:28:42;;;;;;;;;;;;;;;21.70;25.61;95697.59;10472822;28;1480;-75
2022/03/04 11:33:49;;;;;;;;;;;;;;;21.68;25.42;95689.16;10469654;28;1808;-74
2022/03/04 11:38:49;;;;;;;;;;;;;;;21.74;25.32;95690.66;10489444;28;1906;-74
2022/03/04 11:43:51;;;;;;;;;;;;;;;21.70;25.22;95683.63;10472161;28;2030;-75
2022/03/04 11:49:10;;;;;;;;;;;;;;;21.64;25.49;95674.97;10467703;28;1789;-77
2022/03/04 11:54:22;;;;;;;;;;;;;;;21.64;25.58;95679.44;10469607;28;1896;-75
2022/03/04 11:59:23;;;;;;;;;;;;;;;21.64;25.49;95682.88;10484975;28;1914;-75
2022/03/04 12:04:23;;;;;;;;;;;;;;;21.65;25.47;95676.56;10467208;28;1888;-74
2022/03/04 12:09:25;;;;;;;;;;;;;;;21.62;25.54;95673.66;10478677;28;1832;-76
2022/03/04 12:14:26;;;;;;;;;;;;;;;21.63;25.45;95669.97;10459362;28;1799;-76
2022/03/04 12:19:28;;;;;;;;;;;;;;;21.64;25.52;95669.69;10462477;28;1906;-77
2022/03/04 12:24:28;;;;;;;;;;;;;;;21.66;25.42;95661.47;10444175;28;1759;-78
2022/03/04 12:29:40;;;;;;;;;;;;;;;21.59;25.56;95653.94;10446691;28;1808;-74
2022/03/04 12:34:47;;;;;;;;;;;;;;;21.63;25.75;95654.94;10446779;28;1882;-76
2022/03/04 12:39:51;;;;;;;;;;;;;;;21.56;25.67;95654.50;10466151;28;1886;-75
2022/03/04 12:44:51;;;;;;;;;;;;;;;21.50;25.87;95658.25;10430368;28;1991;-76
2022/03/04 12:49:52;;;;;;;;;;;;;;;21.48;25.96;95651.69;10446830;28;2457;-75
2022/03/04 12:54:53;;;;;;;;;;;;;;;21.51;25.88;95653.78;10438643;28;1796;-74
2022/03/04 12:59:53;;;;;;;;;;;;;;;21.49;25.83;95648.00;10477103;28;1961;-75
2022/03/04 13:04:57;;;;;;;;;;;;;;;21.47;25.93;95655.41;10450120;28;1777;-76
2022/03/04 13:09:58;;;;;;;;;;;;;;;21.47;26.05;95652.75;10450280;28;1755;-73
2022/03/04 13:15:09;;;;;;;;;;;;;;;21.52;25.89;95657.97;10468398;28;1951;-75
2022/03/04 13:20:10;;;;;;;;;;;;;;;21.54;25.72;95654.00;10447730;28;1906;-75
2022/03/04 13:25:10;;;;;;;;;;;;;;;21.59;25.78;95663.69;10462039;28;2354;-75
2022/03/04 13:30:10;;;;;;;;;;;;;;;21.66;25.72;95657.00;10462406;28;1819;-75
2022/03/04 13:35:14;;;;;;;;;;;;;;;21.68;25.51;95652.22;10477494;28;1694;-75
2022/03/04 13:40:14;;;;;;;;;;;;;;;21.68;25.29;95652.22;10457061;28;1981;-76
2022/03/04 13:45:44;;;;;;;;;;;;;;;21.71;25.52;95653.53;10467786;28;1828;-75
2022/03/04 13:50:45;;;;;;;;;;;;;;;21.87;25.42;95654.94;10466552;28;1965;-73
2022/03/04 13:55:59;;;;;;;;;;;;;;;22.04;25.53;95657.09;10443603;28;1939;-75
2022/03/04 14:01:00;;;;;;;;;;;;;;;22.18;24.98;95668.50;10476620;28;1807;-75
2022/03/04 14:06:00;;;;;;;;;;;;;;;22.06;25.07;95668.16;10461594;28;1844;-77
2022/03/04 14:11:10;;;;;;;;;;;;;;;21.94;25.00;95662.50;10495716;28;1833;-76
2022/03/04 14:16:11;;;;;;;;;;;;;;;21.83;25.29;95664.47;10475596;28;1901;-76
2022/03/04 14:21:11;;;;;;;;;;;;;;;21.75;25.33;95662.44;10460573;28;1952;-75
2022/03/04 14:26:12;;;;;;;;;;;;;;;21.67;25.50;95665.72;10475850;28;1846;-74
2022/03/04 14:31:13;;;;;;;;;;;;;;;21.62;25.30;95657.84;10471599;28;1919;-79
2022/03/04 14:36:13;;;;;;;;;;;;;;;21.60;25.44;95667.88;10456428;28;1969;-76
2022/03/04 14:41:14;;;;;;;;;;;;;;;21.55;25.42;95662.69;10487525;28;1869;-76
2022/03/04 14:46:14;;;;;;;;;;;;;;;21.53;25.12;95664.81;10457148;28;1903;-75
2022/03/04 14:51:15;;;;;;;;;;;;;;;21.54;25.35;95658.47;10471459;28;2003;-75
2022/03/04 14:56:15;;;;;;;;;;;;;;;21.51;25.18;95654.56;10474175;28;1910;-74
2022/03/04 15:01:15;;;;;;;;;;;;;;;21.44;25.45;95663.84;10472780;28;1808;-74
2022/03/04 15:06:16;;;;;;;;;;;;;;;21.44;25.43;95653.31;10437087;28;1882;-75
2022/03/04 15:11:16;;;;;;;;;;;;;;;21.47;25.32;95653.56;10479005;28;1788;-76
2022/03/04 15:16:16;;;;;;;;;;;;;;;21.50;25.38;95657.47;10496131;28;2153;-75
2022/03/04 15:21:17;;;;;;;;;;;;;;;21.48;25.47;95660.38;10449925;28;1860;-75
2022/03/04 15:26:17;;;;;;;;;;;;;;;21.47;25.69;95658.03;10459705;28;1937;-74
2022/03/04 15:31:17;;;;;;;;;;;;;;;21.47;25.46;95653.56;10461961;28;2067;-73
2022/03/04 15:36:18;;;;;;;;;;;;;;;21.44;25.48;95656.75;10481901;28;1972;-73
2022/03/04 15:41:19;;;;;;;;;;;;;;;21.42;25.69;95660.72;10447003;28;1742;-73
2022/03/04 15:46:20;;;;;;;;;;;;;;;21.42;25.79;95650.16;10484844;28;1902;-72
2022/03/04 15:51:20;;;;;;;;;;;;;;;21.42;25.56;95663.34;10486079;28;1944;-72
2022/03/04 15:56:20;;;;;;;;;;;;;;;21.42;25.76;95658.09;10472191;28;1906;-73
2022/03/04 16:01:21;;;;;;;;;;;;;;;21.42;25.48;95658.09;10466401;28;2268;-74
2022/03/04 16:06:21;;;;;;;;;;;;;;;21.40;25.65;95670.75;10488000;28;1877;-73
2022/03/04 16:11:22;;;;;;;;;;;;;;;21.43;25.34;95678.13;10453603;28;1785;-71
2022/03/04 16:16:22;;;;;;;;;;;;;;;21.39;25.47;95675.25;10490369;28;1937;-77
2022/03/04 16:21:23;;;;;;;;;;;;;;;21.40;25.39;95690.00;10470658;28;2506;-70
2022/03/04 16:26:23;;;;;;;;;;;;;;;21.45;25.20;95686.53;10436475;28;1825;-74
2022/03/04 16:31:24;;;;;;;;;;;;;;;21.49;25.18;95692.81;10454148;28;1765;-74
2022/03/04 16:36:24;;;;;;;;;;;;;;;21.53;25.27;95699.13;10467812;28;1961;-71
2022/03/04 16:41:26;;;;;;;;;;;;;;;21.57;25.15;95702.75;10462164;28;2045;-73
2022/03/04 16:46:26;;;;;;;;;;;;;;;21.62;25.02;95706.13;10481203;28;2076;-75
2022/03/04 16:51:27;;;;;;;;;;;;;;;21.70;24.91;95699.47;10487329;28;1808;-72
2022/03/04 16:56:27;;;;;;;;;;;;;;;21.76;24.76;95708.88;10454043;28;1957;-72
2022/03/04 17:01:28;;;;;;;;;;;;;;;21.83;24.52;95710.13;10450514;28;1812;-73
2022/03/04 17:06:29;;;;;;;;;;;;;;;21.93;24.81;95711.84;10455679;28;2045;-72
2022/03/04 17:11:30;;;;;;;;;;;;;;;22.00;24.76;95707.03;10468862;28;1805;-75
2022/03/04 17:16:30;;;;;;;;;;;;;;;22.08;24.21;95722.22;10452607;28;1959;-73
2022/03/04 17:21:32;;;;;;;;;;;;;;;22.18;24.43;95722.09;10484639;28;1831;-74
2022/03/04 17:26:32;;;;;;;;;;;;;;;22.23;24.43;95724.69;10452702;28;1835;-72
2022/03/04 17:31:32;;;;;;;;;;;;;;;22.29;24.12;95731.47;10488360;28;1809;-75
2022/03/04 17:36:33;;;;;;;;;;;;;;;22.30;24.17;95733.03;10451573;28;2046;-75
2022/03/04 17:41:33;;;;;;;;;;;;;;;22.34;24.25;95736.66;10464722;28;1945;-75
2022/03/04 17:46:34;;;;;;;;;;;;;;;22.36;24.08;95742.44;10444405;28;1805;-74
2022/03/04 17:51:34;;;;;;;;;;;;;;;22.38;23.80;95750.88;10462378;28;1821;-76
2022/03/04 17:56:34;;;;;;;;;;;;;;;22.38;23.88;95752.75;10487988;28;1966;-72
2022/03/04 18:01:35;;;;;;;;;;;;;;;22.37;24.00;95754.59;10487567;28;1798;-73
2022/03/04 18:06:36;;;;;;;;;;;;;;;22.41;24.01;95752.97;10452744;28;1823;-74
2022/03/04 18:11:37;;;;;;;;;;;;;;;22.41;23.62;95752.16;10461438;28;2332;-76
2022/03/04 18:16:37;;;;;;;;;;;;;;;22.38;24.35;95758.78;10495831;28;1902;-75
2022/03/04 18:21:40;;;;;;;;;;;;;;;22.37;23.27;95751.16;10481413;28;1795;-77
2022/03/04 18:26:40;;;;;;;;;;;;;;;22.41;23.88;95762.72;10445452;28;1822;-74
2022/03/04 18:31:45;;;;;;;;;;;;;;;22.34;24.25;95763.06;10464173;28;1891;-74
2022/03/04 18:36:45;;;;;;;;;;;;;;;22.42;23.71;95773.00;10466755;28;1888;-74
2022/03/04 18:41:46;;;;;;;;;;;;;;;22.40;24.00;95772.50;10477088;28;1858;-75
2022/03/04 18:46:46;;;;;;;;;;;;;;;22.39;24.02;95775.44;10476760;28;1768;-74
2022/03/04 18:51:47;;;;;;;;;;;;;;;22.38;23.72;95773.88;10493008;28;1995;-74
2022/03/04 18:56:48;;;;;;;;;;;;;;;22.33;23.91;95776.56;10459818;28;1902;-74
2022/03/04 19:01:54;;;;;;;;;;;;;;;22.33;23.71;95780.00;10493674;28;1725;-75
2022/03/04 19:06:57;;;;;;;;;;;;;;;22.34;23.69;95778.91;10456474;28;1850;-74
2022/03/04 19:11:57;;;;;;;;;;;;;;;22.34;23.61;95786.09;10474122;28;1514;-73
2022/03/04 19:16:57;;;;;;;;;;;;;;;22.34;23.94;95778.16;10470625;28;1910;-69
2022/03/04 19:21:58;;;;;;;;;;;;;;;22.33;23.48;95777.38;10459541;28;1833;-67
2022/03/04 19:26:58;;;;;;;;;;;;;;;22.34;23.53;95783.44;10487939;28;2331;-67
2022/03/04 19:31:59;;;;;;;;;;;;;;;22.35;23.70;95780.50;10465898;28;1888;-69
2022/03/04 19:37:01;;;;;;;;;;;;;;;22.31;23.78;95776.88;10495665;28;1961;-70
2022/03/04 19:42:01;;;;;;;;;;;;;;;22.30;23.85;95787.69;10454000;28;1762;-70
2022/03/04 19:47:02;;;;;;;;;;;;;;;22.28;23.49;95793.25;10490593;28;2342;-70
2022/03/04 19:52:02;;;;;;;;;;;;;;;22.27;23.50;95789.06;10473308;28;1913;-72
2022/03/04 19:57:03;;;;;;;;;;;;;;;22.24;23.78;95791.47;10469356;28;1964;-69
2022/03/04 20:02:04;;;;;;;;;;;;;;;22.25;24.01;95793.03;10469666;28;1773;-72
2022/03/04 20:07:05;;;;;;;;;;;;;;;22.25;23.63;95791.19;10451935;28;1752;-70
2022/03/04 20:12:06;;;;;;;;;;;;;;;22.20;23.66;95795.75;10451347;28;1888;-70
2022/03/04 20:17:07;;;;;;;;;;;;;;;22.21;23.70;95794.69;10467649;28;2061;-71
2022/03/04 20:22:10;;;;;;;;;;;;;;;22.21;24.03;95808.69;10484976;28;1824;-71
2022/03/04 20:27:15;;;;;;;;;;;;;;;22.15;23.94;95804.53;10466096;28;1779;-69
2022/03/04 20:32:16;;;;;;;;;;;;;;;22.15;23.90;95807.16;10466105;28;1831;-68
2022/03/04 20:37:21;;;;;;;;;;;;;;;22.15;23.88;95812.44;10468709;28;1961;-69
2022/03/04 20:42:22;;;;;;;;;;;;;;;22.16;23.76;95808.72;10470872;28;1832;-68
2022/03/04 20:47:23;;;;;;;;;;;;;;;22.15;23.82;95799.25;10473221;28;2031;-71
2022/03/04 20:52:23;;;;;;;;;;;;;;;22.15;24.05;95801.09;10467335;28;1920;-72
2022/03/04 20:57:25;;;;;;;;;;;;;;;22.19;23.88;95808.19;10468584;28;1980;-75
2022/03/04 21:02:25;;;;;;;;;;;;;;;22.23;24.21;95811.81;10454795;28;1690;-76
2022/03/04 21:07:26;;;;;;;;;;;;;;;22.20;23.85;95819.50;10468757;28;1843;-75
2022/03/04 21:12:27;;;;;;;;;;;;;;;22.18;23.96;95819.78;10447461;28;1804;-75
2022/03/04 21:17:27;;;;;;;;;;;;;;;22.17;24.06;95815.59;10445041;28;1942;-75
2022/03/04 21:22:29;;;;;;;;;;;;;;;22.15;23.90;95820.38;10439628;28;1842;-73
2022/03/04 21:27:29;;;;;;;;;;;;;;;22.16;23.55;95814.00;10465118;28;1572;-74
2022/03/04 21:32:30;;;;;;;;;;;;;;;22.18;23.94;95814.50;10464725;28;1564;-73
2022/03/04 21:37:31;;;;;;;;;;;;;;;22.14;24.14;95813.50;10468132;28;1975;-73
2022/03/04 21:47:42;;;;;;;;;;;;;;;22.11;23.97;95810.66;10445028;28;2485;-50
2022/03/04 21:52:43;;;;;;;;;;;;;;;22.09;23.82;95805.63;10420582;28;1521;-53
2022/03/04 21:57:43;;;;;;;;;;;;;;;22.04;23.62;95810.19;10428717;28;1977;-53
2022/03/04 22:02:46;;;;;;;;;;;;;;;22.01;23.73;95805.47;10432960;28;1490;-52
2022/03/04 22:07:47;;;;;;;;;;;;;;;22.00;23.58;95809.97;10426168;28;1841;-53
2022/03/04 22:12:48;;;;;;;;;;;;;;;21.99;23.72;95795.19;10425990;28;1626;-53
2022/03/04 22:17:48;;;;;;;;;;;;;;;21.98;23.72;95800.75;10429637;28;1934;-50
2022/03/04 22:22:48;;;;;;;;;;;;;;;21.95;23.97;95796.03;10426685;28;1506;-51
2022/03/04 22:27:49;;;;;;;;;;;;;;;21.94;23.81;95799.75;10428959;28;1547;-52
2022/03/04 22:32:53;;;;;;;;;;;;;;;21.90;23.77;95796.88;10443051;28;1638;-50
2022/03/04 22:37:54;;;;;;;;;;;;;;;21.91;23.92;95793.16;10442049;28;1971;-52
2022/03/04 22:42:55;;;;;;;;;;;;;;;21.91;23.51;95784.47;10428480;28;1820;-50
2022/03/04 22:47:55;;;;;;;;;;;;;;;21.93;23.43;95780.47;10423829;28;1656;-49
2022/03/04 22:52:55;;;;;;;;;;;;;;;21.92;23.55;95780.75;10425322;28;1583;-52
2022/03/04 22:57:56;;;;;;;;;;;;;;;21.92;23.80;95792.13;10421603;28;1969;-52
2022/03/04 23:08:17;;;;;;;;;;;;;;;21.90;23.43;95783.69;10442728;28;1684;-50
2022/03/04 23:13:18;;;;;;;;;;;;;;;21.89;23.48;95787.38;10424557;28;1958;-51
2022/03/04 23:18:18;;;;;;;;;;;;;;;21.87;23.59;95792.16;10427827;28;1959;-54
2022/03/04 23:23:18;;;;;;;;;;;;;;;21.88;23.49;95785.81;10425500;28;1764;-55
2022/03/04 23:28:19;;;;;;;;;;;;;;;21.86;23.50;95793.22;10424957;28;1809;-53
2022/03/04 23:33:19;;;;;;;;;;;;;;;21.83;23.77;95794.56;10423728;28;1767;-54
2022/03/04 23:38:20;;;;;;;;;;;;;;;21.81;23.53;95795.88;10444584;28;1959;-50
2022/03/04 23:43:21;;;;;;;;;;;;;;;21.82;23.53;95789.59;10444984;28;1821;-51
2022/03/04 23:48:22;;;;;;;;;;;;;;;21.77;23.51;95787.75;10445833;28;1797;-51
2022/03/04 23:53:22;;;;;;;;;;;;;;;21.77;23.45;95779.84;10437568;28;1905;-52
2022/03/04 23:58:23;;;;;;;;;;;;;;;21.76;23.32;95772.97;10438820;28;1953;-51
